Time;durP1;ratioP1;P1;durP2;ratioP2;P2;SDS_P1;SDS_P2;PMS_P1;PMS_P2;Temp;Humidity;BMP_temperature;BMP_pressure;BME280_temperature;BME280_humidity;BME280_pressure;Samples;Min_cycle;Max_cycle;Signal;HPM_P1;HPM_P2
2022/10/07 00:01:53;;;;;;;532.20;476.10;;;14.00;99.90;;;;;;5065511;28;20225;-79
2022/10/07 00:04:20;;;;;;;544.75;487.08;;;14.00;99.90;;;;;;5056253;28;20226;-80
2022/10/07 00:06:46;;;;;;;568.88;483.52;;;14.00;99.90;;;;;;5059445;28;20678;-79
2022/10/07 00:09:13;;;;;;;592.38;483.92;;;14.00;99.90;;;;;;5069370;28;20713;-79
2022/10/07 00:11:40;;;;;;;594.65;484.05;;;14.00;99.90;;;;;;5064893;28;20207;-79
2022/10/07 00:14:07;;;;;;;599.78;491.73;;;14.00;99.90;;;;;;5062800;28;20198;-79
2022/10/07 00:16:36;;;;;;;595.83;485.92;;;14.00;99.90;;;;;;5072754;28;20195;-80
2022/10/07 00:19:06;;;;;;;594.63;483.98;;;13.90;99.90;;;;;;5065865;28;20198;-79
2022/10/07 00:21:34;;;;;;;539.47;480.90;;;13.90;99.90;;;;;;5063850;28;20195;-79
2022/10/07 00:24:01;;;;;;;516.47;455.30;;;13.90;99.90;;;;;;5071969;28;20229;-79
2022/10/07 00:26:31;;;;;;;532.70;476.27;;;13.90;99.90;;;;;;5064174;28;20207;-80
2022/10/07 00:28:58;;;;;;;540.05;484.85;;;13.90;99.90;;;;;;5065977;28;20191;-79
2022/10/07 00:31:27;;;;;;;522.08;467.55;;;13.90;99.90;;;;;;5056657;28;20199;-78
2022/10/07 00:33:54;;;;;;;548.50;493.75;;;13.90;99.90;;;;;;5053233;28;20202;-79
2022/10/07 00:36:24;;;;;;;524.55;470.45;;;13.90;99.90;;;;;;5067378;28;20197;-79
2022/10/07 00:38:54;;;;;;;526.63;474.23;;;13.80;99.90;;;;;;5068554;28;20186;-80
2022/10/07 00:41:24;;;;;;;510.13;458.63;;;13.80;99.90;;;;;;5071327;28;20263;-79
2022/10/07 00:43:51;;;;;;;528.30;477.08;;;13.80;99.90;;;;;;5065476;28;20255;-79
2022/10/07 00:46:28;;;;;;;501.27;450.15;;;13.80;99.90;;;;;;5067232;28;20206;-79
2022/10/07 00:48:56;;;;;;;528.03;474.52;;;13.80;99.90;;;;;;5068964;28;20217;-79
2022/10/07 00:51:24;;;;;;;519.92;467.40;;;13.80;99.90;;;;;;5064584;28;20198;-79
2022/10/07 00:53:54;;;;;;;521.38;469.42;;;13.80;99.90;;;;;;5057527;28;20226;-79
2022/10/07 00:56:21;;;;;;;516.35;463.38;;;13.70;99.90;;;;;;5068145;28;20194;-79
2022/10/07 00:58:50;;;;;;;518.50;465.25;;;13.70;99.90;;;;;;5062637;28;20187;-79
2022/10/07 01:01:18;;;;;;;506.88;454.33;;;13.70;99.90;;;;;;5074938;28;20192;-79
2022/10/07 01:03:47;;;;;;;526.22;473.27;;;13.70;99.90;;;;;;5066515;28;20196;-79
2022/10/07 01:06:14;;;;;;;522.58;469.30;;;13.70;99.90;;;;;;5061214;28;20209;-79
2022/10/07 01:08:43;;;;;;;523.22;469.77;;;13.70;99.90;;;;;;5071571;28;20213;-80
2022/10/07 01:11:19;;;;;;;521.65;468.65;;;13.70;99.90;;;;;;5062032;28;20208;-79
2022/10/07 01:13:58;;;;;;;506.70;454.20;;;13.70;99.90;;;;;;5075054;28;20205;-79
2022/10/07 01:16:33;;;;;;;519.15;465.65;;;13.60;99.90;;;;;;5071562;28;20181;-78
2022/10/07 01:19:51;;;;;;;506.73;453.38;;;13.60;99.90;;;;;;5069721;28;20210;-79
2022/10/07 01:23:09;;;;;;;509.05;454.42;;;13.60;99.90;;;;;;5074540;28;20190;-79
2022/10/07 01:26:27;;;;;;;502.42;439.88;;;13.60;99.90;;;;;;5070795;28;20199;-79
2022/10/07 01:29:46;;;;;;;523.30;448.80;;;13.60;99.90;;;;;;5063264;28;20193;-79
2022/10/07 01:33:03;;;;;;;533.30;442.77;;;13.60;99.90;;;;;;5070464;28;20224;-79
2022/10/07 01:36:21;;;;;;;525.63;433.63;;;13.60;99.90;;;;;;5065889;28;20203;-80
2022/10/07 01:39:38;;;;;;;524.53;439.23;;;13.50;99.90;;;;;;5072877;28;20200;-79
2022/10/07 01:42:56;;;;;;;534.63;430.33;;;13.50;99.90;;;;;;5071546;28;20185;-79
2022/10/07 01:46:13;;;;;;;537.50;433.42;;;13.50;99.90;;;;;;5051105;28;20205;-79
2022/10/07 01:49:30;;;;;;;543.65;434.40;;;13.50;99.90;;;;;;5056395;28;20669;-79
2022/10/07 01:52:48;;;;;;;487.23;419.65;;;13.50;99.90;;;;;;5062792;28;20757;-80
2022/10/07 01:56:06;;;;;;;486.30;431.65;;;13.50;99.90;;;;;;5068202;28;20197;-78
2022/10/07 01:59:24;;;;;;;487.15;430.60;;;13.40;99.90;;;;;;5069390;28;20201;-79
2022/10/07 02:02:42;;;;;;;512.30;454.45;;;13.40;99.90;;;;;;5067469;28;20201;-80
2022/10/07 02:05:15;;;;;;;522.20;429.95;;;13.40;99.90;;;;;;5064130;28;20209;-75
2022/10/07 02:07:54;;;;;;;503.33;430.48;;;13.40;99.90;;;;;;5051610;28;20238;-76
2022/10/07 02:10:26;;;;;;;515.78;438.80;;;13.40;99.90;;;;;;5047532;28;20676;-76
2022/10/07 02:12:58;;;;;;;515.42;441.05;;;13.40;99.90;;;;;;5046336;28;20225;-76
2022/10/07 02:15:30;;;;;;;500.58;444.88;;;13.40;99.90;;;;;;5041696;28;20217;-75
2022/10/07 02:18:01;;;;;;;503.20;443.50;;;13.40;99.90;;;;;;5047558;28;20229;-76
2022/10/07 02:20:31;;;;;;;506.80;451.42;;;13.30;99.90;;;;;;5035236;28;20312;-77
2022/10/07 02:23:01;;;;;;;515.78;460.88;;;13.30;99.90;;;;;;5050695;28;20285;-75
2022/10/07 02:25:34;;;;;;;505.17;450.98;;;13.30;99.90;;;;;;5049963;28;20206;-75
2022/10/07 02:28:04;;;;;;;490.80;433.55;;;13.30;99.90;;;;;;5045900;28;20209;-76
2022/10/07 02:30:33;;;;;;;495.88;441.35;;;13.30;99.90;;;;;;5050315;28;20290;-76
2022/10/07 02:33:03;;;;;;;493.63;438.52;;;13.30;99.90;;;;;;5044751;28;20226;-76
2022/10/07 02:35:41;;;;;;;519.80;464.10;;;13.30;99.90;;;;;;5043895;28;20198;-76
2022/10/07 02:38:11;;;;;;;510.13;454.90;;;13.30;99.90;;;;;;5059627;28;20653;-78
2022/10/07 02:40:41;;;;;;;504.00;443.58;;;13.30;99.90;;;;;;5052526;28;20676;-78
2022/10/07 02:43:15;;;;;;;490.75;437.95;;;13.20;99.90;;;;;;5053220;28;20641;-79
2022/10/07 02:45:44;;;;;;;473.75;422.45;;;13.20;99.90;;;;;;5051028;28;20251;-78
2022/10/07 02:48:20;;;;;;;490.50;437.98;;;13.20;99.90;;;;;;5056340;28;20641;-79
2022/10/07 02:50:52;;;;;;;478.35;423.42;;;13.20;99.90;;;;;;5050873;28;20259;-79
2022/10/07 02:53:21;;;;;;;496.92;443.20;;;13.20;99.90;;;;;;5057307;28;20212;-78
2022/10/07 02:55:50;;;;;;;498.27;444.25;;;13.20;99.90;;;;;;5050297;28;20686;-78
2022/10/07 02:58:18;;;;;;;484.50;422.25;;;13.20;99.90;;;;;;5054794;28;20203;-78
2022/10/07 03:00:49;;;;;;;503.45;447.92;;;13.20;99.90;;;;;;5058062;28;20198;-78
2022/10/07 03:03:16;;;;;;;499.40;446.85;;;13.20;99.90;;;;;;5057685;28;20672;-78
2022/10/07 03:05:43;;;;;;;477.05;426.05;;;13.20;99.90;;;;;;5054617;28;20200;-78
2022/10/07 03:08:12;;;;;;;476.70;426.10;;;13.20;99.90;;;;;;5056559;28;20671;-78
2022/10/07 03:10:38;;;;;;;483.90;432.15;;;13.10;99.90;;;;;;5047780;28;20577;-78
2022/10/07 03:13:05;;;;;;;484.80;432.88;;;13.10;99.90;;;;;;5052164;28;20578;-78
2022/10/07 03:15:34;;;;;;;481.70;428.80;;;13.10;99.90;;;;;;5051372;28;20207;-78
2022/10/07 03:18:01;;;;;;;476.77;423.38;;;13.10;99.90;;;;;;5056940;28;20213;-78
2022/10/07 03:20:29;;;;;;;491.67;438.33;;;13.10;99.90;;;;;;5058837;28;20726;-80
2022/10/07 03:22:55;;;;;;;490.25;437.80;;;13.10;99.90;;;;;;5052525;28;20198;-79
2022/10/07 03:25:24;;;;;;;472.30;417.30;;;13.10;99.90;;;;;;5064134;28;20197;-79
2022/10/07 03:27:51;;;;;;;478.52;425.60;;;13.10;99.90;;;;;;5049421;28;20267;-79
2022/10/07 03:30:21;;;;;;;482.90;429.90;;;13.10;99.90;;;;;;5052446;28;20285;-78
2022/10/07 03:32:48;;;;;;;474.30;421.73;;;13.10;99.90;;;;;;5057895;28;20236;-79
2022/10/07 03:35:15;;;;;;;481.10;429.25;;;13.00;99.90;;;;;;5043793;28;20201;-79
2022/10/07 03:37:42;;;;;;;473.85;422.02;;;13.00;99.90;;;;;;5058114;28;20212;-78
2022/10/07 03:40:10;;;;;;;473.73;421.58;;;13.00;99.90;;;;;;5052521;28;20198;-79
2022/10/07 03:42:39;;;;;;;482.10;430.13;;;13.00;99.90;;;;;;5068204;28;20582;-79
2022/10/07 03:45:06;;;;;;;473.65;421.10;;;13.00;99.90;;;;;;5070509;28;20191;-79
2022/10/07 03:47:34;;;;;;;471.80;413.52;;;13.00;99.90;;;;;;5068622;28;20936;-79
2022/10/07 03:50:01;;;;;;;477.55;424.42;;;13.00;99.90;;;;;;5072540;28;20204;-78
2022/10/07 03:52:27;;;;;;;480.40;428.15;;;13.00;99.90;;;;;;5067916;28;20202;-79
2022/10/07 03:54:55;;;;;;;476.63;425.38;;;13.00;99.90;;;;;;5066352;28;20678;-78
2022/10/07 04:00:09;;;;;;;478.90;427.48;;;12.90;99.90;;;;;;5070257;28;20209;-78
2022/10/07 04:02:35;;;;;;;471.70;420.38;;;12.90;99.90;;;;;;5067153;28;20203;-78
2022/10/07 04:05:02;;;;;;;486.83;434.48;;;12.90;99.90;;;;;;5063808;28;20607;-78
2022/10/07 04:07:29;;;;;;;471.55;419.42;;;12.90;99.90;;;;;;5064926;28;20203;-78
2022/10/07 04:09:56;;;;;;;469.02;415.73;;;12.90;99.90;;;;;;5065565;28;20654;-78
2022/10/07 04:12:22;;;;;;;478.90;427.65;;;12.90;99.90;;;;;;5055832;28;20191;-78
2022/10/07 04:14:50;;;;;;;485.83;434.38;;;12.90;99.90;;;;;;5057597;28;20219;-78
2022/10/07 04:17:18;;;;;;;474.95;423.40;;;12.90;99.90;;;;;;5061141;28;20778;-79
2022/10/07 04:19:45;;;;;;;466.23;415.42;;;12.90;99.90;;;;;;5066410;28;20191;-78
2022/10/07 04:22:12;;;;;;;472.33;420.90;;;12.90;99.90;;;;;;5060445;28;20191;-78
2022/10/07 04:24:39;;;;;;;472.48;421.23;;;12.90;99.90;;;;;;5067389;28;20277;-78
2022/10/07 04:27:06;;;;;;;472.73;419.25;;;12.90;99.90;;;;;;5058447;28;20201;-78
2022/10/07 04:29:33;;;;;;;471.48;412.90;;;12.90;99.90;;;;;;5055152;28;20204;-77
2022/10/07 04:32:00;;;;;;;492.77;415.30;;;12.90;99.90;;;;;;5068089;28;20206;-79
2022/10/07 04:34:29;;;;;;;497.95;419.50;;;12.80;99.90;;;;;;5058734;28;20224;-78
2022/10/07 04:36:56;;;;;;;547.92;426.52;;;12.80;99.90;;;;;;5060777;28;20206;-79
2022/10/07 04:39:24;;;;;;;476.40;405.70;;;12.80;99.90;;;;;;5066358;28;20585;-78
2022/10/07 04:41:51;;;;;;;454.52;400.20;;;12.80;99.90;;;;;;5061741;28;20577;-79
2022/10/07 04:44:17;;;;;;;465.25;411.63;;;12.80;99.90;;;;;;5059136;28;20203;-79
2022/10/07 04:46:44;;;;;;;473.38;410.35;;;12.80;99.90;;;;;;5053615;28;20203;-79
2022/10/07 04:49:11;;;;;;;479.65;426.65;;;12.80;99.90;;;;;;5061345;28;20201;-78
2022/10/07 04:51:39;;;;;;;475.48;416.92;;;12.80;99.90;;;;;;5056713;28;20219;-78
2022/10/07 04:54:07;;;;;;;490.52;410.98;;;12.80;99.90;;;;;;5072742;28;20219;-79
2022/10/07 04:56:33;;;;;;;503.08;408.38;;;12.80;99.90;;;;;;5064691;28;20195;-78
2022/10/07 04:59:00;;;;;;;481.00;413.38;;;12.80;99.90;;;;;;5058833;28;20207;-78
2022/10/07 05:01:27;;;;;;;465.10;412.08;;;12.70;99.90;;;;;;5066504;28;20202;-78
2022/10/07 05:03:54;;;;;;;465.73;405.48;;;12.70;99.90;;;;;;5063597;28;20206;-78
2022/10/07 05:06:20;;;;;;;461.50;387.73;;;12.70;99.90;;;;;;5065224;28;20658;-79
2022/10/07 05:08:48;;;;;;;487.45;410.85;;;12.70;99.90;;;;;;5070267;28;20219;-79
2022/10/07 05:11:15;;;;;;;502.88;417.45;;;12.70;99.90;;;;;;5071638;28;20197;-79
2022/10/07 05:13:42;;;;;;;469.02;418.40;;;12.70;99.90;;;;;;5053542;28;20296;-79
2022/10/07 05:16:10;;;;;;;440.25;388.65;;;12.70;99.90;;;;;;5065090;28;20616;-79
2022/10/07 05:18:38;;;;;;;451.42;402.33;;;12.70;99.90;;;;;;5064166;28;20223;-79
2022/10/07 05:21:06;;;;;;;416.40;384.77;;;12.70;99.90;;;;;;5064940;28;20221;-78
2022/10/07 05:23:35;;;;;;;416.10;387.95;;;12.70;99.90;;;;;;5056522;28;20206;-78
2022/10/07 05:26:06;;;;;;;407.75;377.92;;;12.60;99.90;;;;;;5048223;28;20200;-78
2022/10/07 05:28:34;;;;;;;414.25;374.30;;;12.60;99.90;;;;;;5044352;28;20204;-78
2022/10/07 05:31:02;;;;;;;410.50;377.77;;;12.60;99.90;;;;;;5045933;28;20207;-78
2022/10/07 05:33:30;;;;;;;488.67;396.83;;;12.60;99.90;;;;;;5058003;28;20215;-78
2022/10/07 05:35:57;;;;;;;431.40;389.42;;;12.60;99.90;;;;;;5060495;28;20233;-78
2022/10/07 05:38:24;;;;;;;402.95;370.08;;;12.60;99.90;;;;;;5059075;28;20211;-78
2022/10/07 05:40:57;;;;;;;415.17;382.05;;;12.60;99.90;;;;;;5055643;28;20207;-78
2022/10/07 05:43:25;;;;;;;509.80;403.42;;;12.60;99.90;;;;;;5056533;28;20191;-78
2022/10/07 05:46:03;;;;;;;522.80;400.20;;;12.60;99.90;;;;;;5056594;28;20222;-78
2022/10/07 05:48:31;;;;;;;546.78;400.42;;;12.60;99.90;;;;;;5051096;28;20202;-78
2022/10/07 05:50:58;;;;;;;415.17;377.23;;;12.60;99.90;;;;;;5034462;28;20202;-78
2022/10/07 05:53:25;;;;;;;402.45;373.25;;;12.60;99.90;;;;;;5056326;28;20211;-78
2022/10/07 05:55:52;;;;;;;406.58;376.23;;;12.60;99.90;;;;;;5058393;28;20663;-79
2022/10/07 05:58:19;;;;;;;410.88;379.92;;;12.60;99.90;;;;;;5056182;28;20681;-79
2022/10/07 06:00:55;;;;;;;385.15;355.92;;;12.60;99.90;;;;;;5055122;28;20214;-78
2022/10/07 06:03:24;;;;;;;390.33;361.40;;;12.60;99.90;;;;;;5056124;28;20193;-79
2022/10/07 06:05:52;;;;;;;407.67;377.88;;;12.60;99.90;;;;;;5060711;28;20234;-78
2022/10/07 06:08:20;;;;;;;392.13;362.58;;;12.60;99.90;;;;;;5061690;28;20214;-79
2022/10/07 06:13:32;;;;;;;390.67;361.73;;;12.50;99.90;;;;;;5053370;28;20245;-78
2022/10/07 06:16:05;;;;;;;402.52;373.00;;;12.60;99.90;;;;;;5063267;28;20206;-79
2022/10/07 06:18:32;;;;;;;397.35;365.80;;;12.50;99.90;;;;;;5064905;28;20689;-79
2022/10/07 06:21:00;;;;;;;401.45;371.05;;;12.50;99.90;;;;;;5063517;28;20931;-79
2022/10/07 06:23:28;;;;;;;400.20;370.20;;;12.50;99.90;;;;;;5056532;28;20660;-79
2022/10/07 06:25:56;;;;;;;411.83;380.52;;;12.50;99.90;;;;;;5068026;28;20206;-79
2022/10/07 06:28:23;;;;;;;406.42;375.80;;;12.60;99.90;;;;;;5050770;28;20192;-78
2022/10/07 06:30:50;;;;;;;418.40;384.85;;;12.60;99.90;;;;;;5054177;28;20195;-79
2022/10/07 06:33:19;;;;;;;406.55;372.58;;;12.60;99.90;;;;;;5051730;28;20650;-78
2022/10/07 06:35:46;;;;;;;432.55;395.13;;;12.60;99.90;;;;;;5053184;28;20199;-79
2022/10/07 06:38:13;;;;;;;462.88;399.65;;;12.60;99.90;;;;;;5053696;28;20796;-78
2022/10/07 06:40:39;;;;;;;466.17;408.40;;;12.60;99.90;;;;;;5054432;28;20199;-78
2022/10/07 06:43:06;;;;;;;461.45;396.90;;;12.60;99.90;;;;;;5058981;28;20202;-79
2022/10/07 06:45:33;;;;;;;461.02;397.25;;;12.60;99.90;;;;;;5056534;28;20202;-78
2022/10/07 06:48:00;;;;;;;461.50;404.60;;;12.60;99.90;;;;;;5058970;28;20205;-78
2022/10/07 06:50:28;;;;;;;471.20;409.58;;;12.60;99.90;;;;;;5045952;28;20241;-79
2022/10/07 06:52:55;;;;;;;467.90;395.15;;;12.60;99.90;;;;;;5051440;28;20198;-79
2022/10/07 06:55:22;;;;;;;465.35;406.30;;;12.70;99.90;;;;;;5052893;28;21147;-80
2022/10/07 06:57:49;;;;;;;476.25;423.20;;;12.90;99.90;;;;;;5055293;28;20207;-79
2022/10/07 07:00:16;;;;;;;466.13;403.63;;;13.00;99.90;;;;;;5056061;28;20629;-79
2022/10/07 07:02:43;;;;;;;463.60;405.55;;;13.20;99.90;;;;;;5046474;28;20551;-79
2022/10/07 07:05:14;;;;;;;478.73;426.38;;;13.30;99.90;;;;;;5045961;28;20224;-79
2022/10/07 07:07:42;;;;;;;491.27;438.38;;;13.50;99.90;;;;;;5043862;28;20246;-79
2022/10/07 07:10:09;;;;;;;488.98;436.35;;;13.60;99.90;;;;;;5050129;28;20858;-78
2022/10/07 07:12:36;;;;;;;488.33;436.20;;;13.70;99.90;;;;;;5051917;28;20203;-80
2022/10/07 07:15:03;;;;;;;497.15;444.67;;;13.80;99.90;;;;;;5052319;28;20218;-79
2022/10/07 07:17:30;;;;;;;503.27;450.92;;;14.00;99.90;;;;;;5049363;28;20218;-78
2022/10/07 07:19:57;;;;;;;520.20;467.05;;;14.10;99.90;;;;;;5063430;28;20202;-79
2022/10/07 07:22:23;;;;;;;519.58;466.55;;;14.10;99.90;;;;;;5069871;28;20700;-79
2022/10/07 07:24:52;;;;;;;525.40;472.00;;;14.20;99.90;;;;;;5066658;28;20653;-79
2022/10/07 07:27:20;;;;;;;530.45;476.65;;;14.30;99.90;;;;;;5062352;28;20701;-79
2022/10/07 07:29:47;;;;;;;523.45;470.30;;;14.40;99.90;;;;;;5065007;28;20612;-78
2022/10/07 07:32:13;;;;;;;523.95;470.45;;;14.40;99.90;;;;;;5064266;28;20194;-79
2022/10/07 07:34:40;;;;;;;533.70;479.38;;;14.50;99.90;;;;;;5066315;28;20192;-79
2022/10/07 07:37:07;;;;;;;535.55;481.73;;;14.60;99.90;;;;;;5054494;28;20202;-78
2022/10/07 07:39:34;;;;;;;539.88;486.60;;;14.60;99.90;;;;;;5054452;28;20196;-79
2022/10/07 07:42:02;;;;;;;550.00;496.48;;;14.70;99.90;;;;;;5043698;28;20202;-80
2022/10/07 07:44:29;;;;;;;547.42;494.02;;;14.70;99.90;;;;;;5040604;28;20203;-80
2022/10/07 07:46:56;;;;;;;551.58;497.58;;;14.80;99.90;;;;;;5048983;28;20198;-80
2022/10/07 07:49:23;;;;;;;559.90;505.70;;;14.80;99.90;;;;;;5050796;28;20203;-80
2022/10/07 07:51:50;;;;;;;569.33;514.40;;;14.80;99.90;;;;;;5045141;28;20206;-80
2022/10/07 07:54:17;;;;;;;565.15;510.20;;;14.90;99.90;;;;;;5049177;28;20743;-79
2022/10/07 07:56:44;;;;;;;570.58;516.67;;;15.00;99.90;;;;;;5049077;28;20241;-79
2022/10/07 07:59:12;;;;;;;572.20;518.28;;;15.00;99.90;;;;;;5049860;28;20206;-80
2022/10/07 08:01:39;;;;;;;583.50;529.20;;;15.00;99.90;;;;;;5049290;28;20198;-78
2022/10/07 08:04:06;;;;;;;565.10;510.80;;;15.00;99.90;;;;;;5044724;28;20226;-80
2022/10/07 08:06:33;;;;;;;571.88;517.72;;;15.00;99.90;;;;;;5047123;28;20207;-79
2022/10/07 08:09:00;;;;;;;560.63;506.17;;;15.00;99.90;;;;;;5047296;28;20195;-79
2022/10/07 08:11:28;;;;;;;577.55;523.15;;;15.00;99.90;;;;;;5050768;28;20638;-79
2022/10/07 08:13:56;;;;;;;575.28;520.78;;;15.00;99.90;;;;;;5047283;28;20650;-78
2022/10/07 08:16:27;;;;;;;577.40;523.55;;;15.00;99.90;;;;;;5046537;28;20710;-79
2022/10/07 08:18:55;;;;;;;585.35;530.75;;;15.00;99.90;;;;;;5041293;28;20421;-79
2022/10/07 08:21:23;;;;;;;583.55;527.58;;;15.10;99.90;;;;;;5048799;28;20187;-81
2022/10/07 08:23:53;;;;;;;579.60;524.50;;;15.10;99.90;;;;;;5043525;28;20192;-80
2022/10/07 08:26:20;;;;;;;566.05;511.90;;;15.10;99.90;;;;;;5044504;28;20647;-80
2022/10/07 08:28:47;;;;;;;584.60;529.67;;;15.10;99.90;;;;;;5049786;28;20269;-80
2022/10/07 08:31:16;;;;;;;581.67;527.13;;;15.10;99.90;;;;;;5048888;28;20211;-81
2022/10/07 08:33:46;;;;;;;590.88;537.00;;;15.10;99.90;;;;;;5048169;28;20195;-80
2022/10/07 08:36:15;;;;;;;584.10;529.92;;;15.20;99.90;;;;;;5043430;28;20191;-80
2022/10/07 08:38:43;;;;;;;601.17;545.35;;;15.20;99.90;;;;;;5049400;28;20195;-80
2022/10/07 08:41:35;;;;;;;592.88;537.78;;;15.20;99.90;;;;;;5052015;28;20199;-81
2022/10/07 08:44:14;;;;;;;601.55;545.33;;;15.30;99.90;;;;;;5048808;28;20203;-80
2022/10/07 08:46:50;;;;;;;601.70;545.40;;;15.30;99.90;;;;;;5047697;28;20195;-81
2022/10/07 08:49:24;;;;;;;619.67;563.42;;;15.40;99.90;;;;;;5053864;28;20222;-80
2022/10/07 08:51:58;;;;;;;605.45;549.85;;;15.40;99.90;;;;;;5051533;28;20202;-80
2022/10/07 08:54:29;;;;;;;640.28;583.53;;;15.50;99.90;;;;;;5045995;28;20225;-81
2022/10/07 08:57:01;;;;;;;634.95;578.25;;;15.50;99.90;;;;;;5049990;28;20195;-81
2022/10/07 08:59:30;;;;;;;642.25;584.88;;;15.50;99.90;;;;;;5047963;28;20195;-80
2022/10/07 09:02:12;;;;;;;622.92;566.40;;;15.60;99.90;;;;;;5051753;28;20186;-80
2022/10/07 09:04:53;;;;;;;620.45;563.85;;;15.60;99.90;;;;;;5047791;28;20780;-80
2022/10/07 09:07:30;;;;;;;618.15;562.63;;;15.60;99.90;;;;;;5047725;28;20232;-80
2022/10/07 09:10:02;;;;;;;632.67;576.47;;;15.60;99.90;;;;;;5052415;28;20206;-80
2022/10/07 09:12:36;;;;;;;630.90;574.80;;;15.60;99.90;;;;;;5051479;28;20238;-80
2022/10/07 09:15:05;;;;;;;630.15;574.58;;;15.60;99.90;;;;;;5051168;28;20728;-81
2022/10/07 09:17:36;;;;;;;628.67;573.50;;;15.60;99.90;;;;;;5054281;28;20211;-80
2022/10/07 09:20:12;;;;;;;641.13;584.97;;;15.70;99.90;;;;;;5049380;28;20202;-80
2022/10/07 09:22:41;;;;;;;629.95;573.85;;;15.70;99.90;;;;;;5041334;28;20714;-79
2022/10/07 09:25:19;;;;;;;648.00;591.80;;;15.70;99.90;;;;;;5055295;28;20191;-80
2022/10/07 09:27:47;;;;;;;631.22;575.67;;;15.70;99.90;;;;;;5039199;28;20195;-80
2022/10/07 09:30:15;;;;;;;641.55;585.20;;;15.70;99.90;;;;;;5051972;28;20229;-80
2022/10/07 09:32:44;;;;;;;628.50;572.45;;;15.70;99.90;;;;;;5054581;28;20569;-81
2022/10/07 09:35:14;;;;;;;628.47;572.70;;;15.70;99.90;;;;;;5046606;28;20219;-81
2022/10/07 09:37:56;;;;;;;624.17;568.08;;;15.70;99.90;;;;;;5041819;28;20666;-79
2022/10/07 09:40:32;;;;;;;639.17;584.55;;;15.70;99.90;;;;;;5049147;28;20655;-80
2022/10/07 09:42:59;;;;;;;629.80;575.28;;;15.70;99.90;;;;;;5048104;28;20688;-81
2022/10/07 09:45:30;;;;;;;648.40;593.00;;;15.70;99.90;;;;;;5037643;28;20187;-78
2022/10/07 09:47:59;;;;;;;645.67;591.13;;;15.70;99.90;;;;;;5017994;28;20230;-79
2022/10/07 09:50:35;;;;;;;620.95;566.88;;;15.70;99.90;;;;;;5009108;28;20652;-79
2022/10/07 09:53:03;;;;;;;619.78;565.53;;;15.70;99.90;;;;;;5010813;28;20199;-79
2022/10/07 09:55:36;;;;;;;619.65;567.08;;;15.70;99.90;;;;;;5016699;28;20213;-79
2022/10/07 09:58:06;;;;;;;614.28;560.92;;;15.60;99.90;;;;;;5025873;28;20283;-81
2022/10/07 10:00:41;;;;;;;631.20;576.90;;;15.60;99.90;;;;;;5006760;28;20211;-79
2022/10/07 10:03:08;;;;;;;617.60;564.45;;;15.60;99.90;;;;;;5017407;28;20226;-80
2022/10/07 10:05:38;;;;;;;638.85;585.20;;;15.60;99.90;;;;;;5017615;28;20652;-80
2022/10/07 10:08:07;;;;;;;613.22;560.78;;;15.60;99.90;;;;;;5016495;28;20679;-81
2022/10/07 10:10:36;;;;;;;611.25;558.22;;;15.70;99.90;;;;;;5013357;28;20685;-82
2022/10/07 10:13:05;;;;;;;607.92;555.17;;;15.70;99.90;;;;;;5009383;28;20197;-80
2022/10/07 10:15:41;;;;;;;621.25;567.78;;;15.70;99.90;;;;;;5014942;28;20231;-79
2022/10/07 10:18:33;;;;;;;608.70;556.38;;;15.70;99.90;;;;;;5017350;28;20227;-81
2022/10/07 10:21:24;;;;;;;623.55;570.55;;;15.70;99.90;;;;;;5010597;28;20232;-79
2022/10/07 10:23:52;;;;;;;603.15;550.70;;;15.70;99.90;;;;;;5007803;28;20196;-84
2022/10/07 10:26:55;;;;;;;610.97;558.53;;;15.70;99.90;;;;;;5025707;28;20291;-81
2022/10/07 10:29:34;;;;;;;599.40;546.70;;;15.70;99.90;;;;;;4982275;28;20204;-83
2022/10/07 10:32:21;;;;;;;613.40;560.67;;;15.70;99.90;;;;;;5005191;28;20200;-80
2022/10/07 10:34:59;;;;;;;594.80;542.17;;;15.70;99.90;;;;;;5003737;28;20692;-80
2022/10/07 10:37:40;;;;;;;612.08;559.28;;;15.70;99.90;;;;;;5008988;28;20287;-79
2022/10/07 10:40:19;;;;;;;593.08;540.28;;;15.70;99.90;;;;;;5008260;28;20564;-80
2022/10/07 10:42:56;;;;;;;612.08;558.53;;;15.70;99.90;;;;;;4996661;28;20200;-80
2022/10/07 10:45:34;;;;;;;609.13;556.55;;;15.60;99.90;;;;;;5006054;28;20283;-79
2022/10/07 10:48:18;;;;;;;612.38;559.78;;;15.70;99.90;;;;;;5034193;28;20194;-78
2022/10/07 10:50:52;;;;;;;610.72;557.33;;;15.70;99.90;;;;;;5003198;28;20192;-79
2022/10/07 10:53:33;;;;;;;608.28;555.08;;;15.70;99.90;;;;;;5004622;28;20693;-80
2022/10/07 10:56:11;;;;;;;607.47;554.08;;;15.70;99.90;;;;;;5003524;28;20213;-80
2022/10/07 10:58:52;;;;;;;601.05;547.65;;;15.70;99.90;;;;;;5001980;28;20207;-80
2022/10/07 11:01:29;;;;;;;617.40;564.00;;;15.70;99.90;;;;;;5010658;28;20232;-80
2022/10/07 11:04:21;;;;;;;597.15;544.05;;;15.70;99.90;;;;;;5004525;28;20193;-81
2022/10/07 11:06:53;;;;;;;603.30;549.65;;;15.70;99.90;;;;;;5006238;28;20208;-79
2022/10/07 11:09:29;;;;;;;614.65;560.70;;;15.70;99.90;;;;;;5004378;28;20197;-80
2022/10/07 11:12:00;;;;;;;605.13;550.80;;;15.70;99.90;;;;;;5000648;28;20192;-81
2022/10/07 11:14:29;;;;;;;614.75;560.55;;;15.70;99.90;;;;;;5020027;28;20218;-80
2022/10/07 11:17:01;;;;;;;607.63;553.22;;;15.70;99.90;;;;;;5011368;28;20274;-79
2022/10/07 11:19:34;;;;;;;628.05;573.15;;;15.60;99.90;;;;;;5005772;28;20217;-79
2022/10/07 11:22:02;;;;;;;622.30;567.15;;;15.70;99.90;;;;;;5003318;28;20631;-80
2022/10/07 11:24:36;;;;;;;646.65;591.00;;;15.70;99.90;;;;;;5022526;28;20188;-79
2022/10/07 11:27:10;;;;;;;612.15;557.50;;;15.70;99.90;;;;;;5010347;28;20216;-80
2022/10/07 11:29:42;;;;;;;599.70;546.47;;;15.70;99.90;;;;;;5007238;28;20224;-78
2022/10/07 11:32:15;;;;;;;609.70;556.22;;;15.70;99.90;;;;;;4996058;28;20223;-80
2022/10/07 11:34:48;;;;;;;610.60;557.25;;;15.70;99.90;;;;;;5001964;28;20197;-80
2022/10/07 11:37:20;;;;;;;641.40;587.25;;;15.70;99.90;;;;;;5006269;28;20647;-80
2022/10/07 11:39:49;;;;;;;605.03;551.25;;;15.70;99.90;;;;;;5005005;28;20201;-80
2022/10/07 11:42:21;;;;;;;603.58;550.38;;;15.70;99.90;;;;;;4996447;28;20204;-80
2022/10/07 11:44:55;;;;;;;606.10;552.10;;;15.70;99.90;;;;;;5008758;28;20195;-79
2022/10/07 11:47:26;;;;;;;618.72;563.58;;;15.70;99.90;;;;;;5010462;28;20204;-80
2022/10/07 11:49:59;;;;;;;617.13;561.60;;;15.70;99.90;;;;;;5004624;28;20201;-80
2022/10/07 11:52:29;;;;;;;609.47;554.35;;;15.70;99.90;;;;;;5005905;28;20201;-81
2022/10/07 11:55:02;;;;;;;599.63;544.97;;;15.70;99.90;;;;;;5011374;28;20187;-80
2022/10/07 11:57:32;;;;;;;611.60;556.95;;;15.70;99.90;;;;;;5003619;28;20200;-80
2022/10/07 12:00:03;;;;;;;612.13;557.03;;;15.70;99.90;;;;;;4999375;28;20564;-81
2022/10/07 12:02:38;;;;;;;618.85;563.67;;;15.70;99.90;;;;;;5007436;28;20204;-80
2022/10/07 12:05:07;;;;;;;617.83;562.33;;;15.70;99.90;;;;;;5013993;28;20226;-80
2022/10/07 12:07:57;;;;;;;606.60;550.80;;;15.70;99.90;;;;;;5006809;28;20258;-80
2022/10/07 12:10:35;;;;;;;599.25;544.40;;;15.70;99.90;;;;;;5007616;28;20565;-81
2022/10/07 12:13:40;;;;;;;608.65;554.22;;;15.70;99.90;;;;;;4999433;28;20592;-81
2022/10/07 12:16:41;;;;;;;595.28;540.58;;;15.70;99.90;;;;;;5004949;28;20591;-81
2022/10/07 12:19:18;;;;;;;599.33;543.72;;;15.70;99.90;;;;;;5000919;28;20210;-81
2022/10/07 12:22:14;;;;;;;605.85;550.50;;;15.70;99.90;;;;;;5006533;28;20290;-81
2022/10/07 12:24:44;;;;;;;587.20;532.97;;;15.70;99.90;;;;;;5021307;28;20204;-80
2022/10/07 12:27:16;;;;;;;613.47;557.58;;;15.70;99.90;;;;;;5011499;28;20196;-81
2022/10/07 12:29:57;;;;;;;609.25;553.67;;;15.70;99.90;;;;;;5010576;28;20243;-79
2022/10/07 12:32:55;;;;;;;623.90;568.03;;;15.70;99.90;;;;;;5021971;28;20232;-80
2022/10/07 12:35:45;;;;;;;617.00;561.80;;;15.70;99.90;;;;;;5008455;28;20304;-80
2022/10/07 12:38:15;;;;;;;594.63;540.92;;;15.70;99.90;;;;;;5010938;28;20702;-80
2022/10/07 12:40:47;;;;;;;599.78;546.30;;;15.70;99.90;;;;;;5008444;28;20291;-79
2022/10/07 12:43:33;;;;;;;599.42;545.13;;;15.70;99.90;;;;;;5008716;28;20651;-80